This is the latest recevied weather packets stored in our database for station/object W4IFI. If no packets are shown the sender has not sent any weather packets the latest 10 day(s).
| Time | Temp. | Humidity | Pressure | Rain* | Wind** | Luminosity | Snow |
|---|---|---|---|---|---|---|---|
| 1777545737 | 3.33° C | 55% | 1014.9 hPa | 0 mm | - | - | - |
| 1777545137 | 3.33° C | 55% | 1015.1 hPa | 0 mm | - | - | - |
| 1777542903 | 2.78° C | 54% | 1015.3 hPa | 0 mm | - | - | - |
| 1777541103 | 2.22° C | 54% | 1015 hPa | 0 mm | - | - | - |
| 1777540803 | 2.22° C | 54% | 1014.9 hPa | 0 mm | - | - | - |
| 1777540203 | 1.11° C | 56% | 1014.9 hPa | 0 mm | - | - | - |
| 1777538403 | 1.11° C | 57% | 1014.8 hPa | 0 mm | - | - | - |
| 1777536903 | 1.11° C | 56% | 1015.3 hPa | 0 mm | - | - | - |
| 1777535703 | 1.11° C | 56% | 1015.3 hPa | 0 mm | - | - | - |
| 1777531503 | 1.67° C | 53% | 1015.6 hPa | 0 mm | - | - | - |
| 1777530603 | 2.22° C | 51% | 1015.5 hPa | 0 mm | - | - | - |
| 1777530303 | 2.22° C | 50% | 1015.5 hPa | 0 mm | - | - | - |
| 1777529838 | 2.78° C | 50% | 1015.6 hPa | 0 mm | - | - | - |
| 1777529403 | 2.78° C | 49% | 1015.6 hPa | 0 mm | - | - | - |
| 1777528038 | 2.78° C | 48% | 1015.7 hPa | 0 mm | - | - | - |
| 1777527003 | 2.22° C | 50% | 1015.8 hPa | 0 mm | - | - | - |
| 1777526537 | 2.78° C | 47% | 1015.8 hPa | 0 mm | - | - | - |
| 1777525803 | 3.89° C | 42% | 1015.8 hPa | 0 mm | - | - | - |
| 1777522803 | 6.11° C | 36% | 1016.1 hPa | 0 mm | - | - | - |
| 1777522203 | 6.11° C | 36% | 1016.3 hPa | 0 mm | - | - | - |
| 1777521303 | 6.11° C | 35% | 1016.4 hPa | 0 mm | - | - | - |
| 1777520103 | 6.67° C | 35% | 1016.1 hPa | 0 mm | - | - | - |
| 1777519803 | 6.67° C | 34% | 1016 hPa | 0 mm | - | - | - |
| 1777518003 | 7.22° C | 32% | 1015.8 hPa | 0 mm | - | - | - |
| 1777517403 | 7.78° C | 31% | 1015.6 hPa | 0 mm | - | - | - |
* Rain latest hour (hover to see other rain measurements)
** Current wind speed in m/s (hover to see current wind gust speed)